sensor_id;sensor_type;location;lat;lon;timestamp;P1;durP1;ratioP1;P2;durP2;ratioP2
11481;SDS011;5797;51.662;6.748;2023-04-08T00:00:06;9.17;;;5.67;;
11481;SDS011;5797;51.662;6.748;2023-04-08T00:02:39;9.07;;;5.50;;
11481;SDS011;5797;51.662;6.748;2023-04-08T00:05:08;8.43;;;5.90;;
11481;SDS011;5797;51.662;6.748;2023-04-08T00:07:37;11.67;;;5.97;;
11481;SDS011;5797;51.662;6.748;2023-04-08T00:10:06;7.87;;;5.97;;
11481;SDS011;5797;51.662;6.748;2023-04-08T00:12:36;10.73;;;6.40;;
11481;SDS011;5797;51.662;6.748;2023-04-08T00:15:05;10.17;;;6.67;;
11481;SDS011;5797;51.662;6.748;2023-04-08T00:17:33;10.77;;;6.50;;
11481;SDS011;5797;51.662;6.748;2023-04-08T00:20:02;8.80;;;6.30;;
11481;SDS011;5797;51.662;6.748;2023-04-08T00:22:31;9.73;;;6.37;;
11481;SDS011;5797;51.662;6.748;2023-04-08T00:24:59;9.33;;;6.43;;
11481;SDS011;5797;51.662;6.748;2023-04-08T00:27:28;9.90;;;6.37;;
11481;SDS011;5797;51.662;6.748;2023-04-08T00:29:58;8.97;;;6.67;;
11481;SDS011;5797;51.662;6.748;2023-04-08T00:32:27;10.93;;;7.20;;
11481;SDS011;5797;51.662;6.748;2023-04-08T00:34:56;9.17;;;6.13;;
11481;SDS011;5797;51.662;6.748;2023-04-08T00:37:25;7.47;;;5.57;;
11481;SDS011;5797;51.662;6.748;2023-04-08T00:39:53;10.23;;;6.87;;
11481;SDS011;5797;51.662;6.748;2023-04-08T00:42:21;10.20;;;6.77;;
11481;SDS011;5797;51.662;6.748;2023-04-08T00:44:50;10.00;;;6.47;;
11481;SDS011;5797;51.662;6.748;2023-04-08T00:47:19;8.80;;;5.90;;
11481;SDS011;5797;51.662;6.748;2023-04-08T00:49:48;8.43;;;5.77;;
11481;SDS011;5797;51.662;6.748;2023-04-08T00:52:16;8.67;;;6.70;;
11481;SDS011;5797;51.662;6.748;2023-04-08T00:54:44;10.30;;;6.77;;
11481;SDS011;5797;51.662;6.748;2023-04-08T00:57:13;10.03;;;6.67;;
11481;SDS011;5797;51.662;6.748;2023-04-08T00:59:41;9.53;;;6.27;;
11481;SDS011;5797;51.662;6.748;2023-04-08T01:02:11;9.57;;;6.43;;
11481;SDS011;5797;51.662;6.748;2023-04-08T01:04:47;8.60;;;6.33;;
11481;SDS011;5797;51.662;6.748;2023-04-08T01:07:19;9.37;;;6.40;;
11481;SDS011;5797;51.662;6.748;2023-04-08T01:09:50;9.00;;;6.73;;
11481;SDS011;5797;51.662;6.748;2023-04-08T01:12:21;9.80;;;6.97;;
11481;SDS011;5797;51.662;6.748;2023-04-08T01:17:24;10.87;;;7.00;;
11481;SDS011;5797;51.662;6.748;2023-04-08T01:19:53;8.97;;;6.67;;
11481;SDS011;5797;51.662;6.748;2023-04-08T01:22:25;9.13;;;6.30;;
11481;SDS011;5797;51.662;6.748;2023-04-08T01:24:56;12.03;;;6.93;;
11481;SDS011;5797;51.662;6.748;2023-04-08T01:27:29;10.63;;;6.67;;
11481;SDS011;5797;51.662;6.748;2023-04-08T01:30:00;9.53;;;6.57;;
11481;SDS011;5797;51.662;6.748;2023-04-08T01:32:30;9.17;;;6.60;;
11481;SDS011;5797;51.662;6.748;2023-04-08T01:34:59;10.20;;;7.37;;
11481;SDS011;5797;51.662;6.748;2023-04-08T01:37:28;10.93;;;6.80;;
11481;SDS011;5797;51.662;6.748;2023-04-08T01:39:57;10.00;;;6.83;;
11481;SDS011;5797;51.662;6.748;2023-04-08T01:42:26;9.97;;;6.80;;
11481;SDS011;5797;51.662;6.748;2023-04-08T01:44:57;10.37;;;7.17;;
11481;SDS011;5797;51.662;6.748;2023-04-08T01:47:26;8.80;;;6.33;;
11481;SDS011;5797;51.662;6.748;2023-04-08T01:49:55;10.83;;;7.17;;
11481;SDS011;5797;51.662;6.748;2023-04-08T01:52:23;10.50;;;6.80;;
11481;SDS011;5797;51.662;6.748;2023-04-08T01:54:52;9.60;;;6.23;;
11481;SDS011;5797;51.662;6.748;2023-04-08T01:57:26;11.67;;;6.90;;
11481;SDS011;5797;51.662;6.748;2023-04-08T01:59:55;12.57;;;7.10;;
11481;SDS011;5797;51.662;6.748;2023-04-08T02:02:45;10.70;;;7.40;;
11481;SDS011;5797;51.662;6.748;2023-04-08T02:05:14;12.07;;;7.10;;
11481;SDS011;5797;51.662;6.748;2023-04-08T02:07:43;12.27;;;7.33;;
11481;SDS011;5797;51.662;6.748;2023-04-08T02:10:12;10.00;;;6.70;;
11481;SDS011;5797;51.662;6.748;2023-04-08T02:12:41;9.93;;;7.20;;
11481;SDS011;5797;51.662;6.748;2023-04-08T02:15:11;10.07;;;6.87;;
11481;SDS011;5797;51.662;6.748;2023-04-08T02:17:42;9.30;;;6.57;;
11481;SDS011;5797;51.662;6.748;2023-04-08T02:20:15;10.50;;;6.90;;
11481;SDS011;5797;51.662;6.748;2023-04-08T02:22:46;9.80;;;6.90;;
11481;SDS011;5797;51.662;6.748;2023-04-08T02:25:18;10.07;;;7.03;;
11481;SDS011;5797;51.662;6.748;2023-04-08T02:27:49;12.00;;;6.70;;
11481;SDS011;5797;51.662;6.748;2023-04-08T02:30:20;10.20;;;7.10;;
11481;SDS011;5797;51.662;6.748;2023-04-08T02:32:49;10.33;;;7.03;;
11481;SDS011;5797;51.662;6.748;2023-04-08T02:35:17;12.33;;;7.10;;
11481;SDS011;5797;51.662;6.748;2023-04-08T02:37:46;10.03;;;6.53;;
11481;SDS011;5797;51.662;6.748;2023-04-08T02:40:21;9.40;;;6.83;;
11481;SDS011;5797;51.662;6.748;2023-04-08T02:42:51;13.63;;;7.53;;
11481;SDS011;5797;51.662;6.748;2023-04-08T02:45:21;17.10;;;7.90;;
11481;SDS011;5797;51.662;6.748;2023-04-08T02:47:49;21.37;;;7.83;;
11481;SDS011;5797;51.662;6.748;2023-04-08T02:50:18;15.47;;;7.90;;
11481;SDS011;5797;51.662;6.748;2023-04-08T02:52:46;21.33;;;8.70;;
11481;SDS011;5797;51.662;6.748;2023-04-08T02:55:14;48.73;;;12.67;;
11481;SDS011;5797;51.662;6.748;2023-04-08T02:57:42;21.47;;;8.87;;
11481;SDS011;5797;51.662;6.748;2023-04-08T03:00:11;11.43;;;7.40;;
11481;SDS011;5797;51.662;6.748;2023-04-08T03:02:41;19.50;;;8.73;;
11481;SDS011;5797;51.662;6.748;2023-04-08T03:05:10;19.97;;;9.87;;
11481;SDS011;5797;51.662;6.748;2023-04-08T03:07:38;18.93;;;9.47;;
11481;SDS011;5797;51.662;6.748;2023-04-08T03:10:07;26.47;;;10.20;;
11481;SDS011;5797;51.662;6.748;2023-04-08T03:12:36;19.37;;;9.77;;
11481;SDS011;5797;51.662;6.748;2023-04-08T03:15:05;30.37;;;10.50;;
11481;SDS011;5797;51.662;6.748;2023-04-08T03:17:34;42.10;;;11.67;;
11481;SDS011;5797;51.662;6.748;2023-04-08T03:20:04;26.40;;;10.10;;
11481;SDS011;5797;51.662;6.748;2023-04-08T03:22:33;35.73;;;11.50;;
11481;SDS011;5797;51.662;6.748;2023-04-08T03:25:02;18.63;;;10.37;;
11481;SDS011;5797;51.662;6.748;2023-04-08T03:27:31;17.93;;;10.33;;
11481;SDS011;5797;51.662;6.748;2023-04-08T03:30:00;20.37;;;11.63;;
11481;SDS011;5797;51.662;6.748;2023-04-08T03:32:29;13.73;;;9.60;;
11481;SDS011;5797;51.662;6.748;2023-04-08T03:34:57;29.20;;;12.67;;
11481;SDS011;5797;51.662;6.748;2023-04-08T03:37:27;21.73;;;9.40;;
11481;SDS011;5797;51.662;6.748;2023-04-08T03:39:55;18.33;;;8.93;;
11481;SDS011;5797;51.662;6.748;2023-04-08T03:42:24;39.97;;;10.03;;
11481;SDS011;5797;51.662;6.748;2023-04-08T03:44:53;26.43;;;8.57;;
11481;SDS011;5797;51.662;6.748;2023-04-08T03:47:21;29.60;;;8.53;;
11481;SDS011;5797;51.662;6.748;2023-04-08T03:49:51;13.30;;;8.00;;
11481;SDS011;5797;51.662;6.748;2023-04-08T03:52:20;12.37;;;6.83;;
11481;SDS011;5797;51.662;6.748;2023-04-08T03:54:50;21.67;;;8.27;;
11481;SDS011;5797;51.662;6.748;2023-04-08T03:57:18;15.33;;;7.80;;
11481;SDS011;5797;51.662;6.748;2023-04-08T03:59:46;27.40;;;9.17;;
11481;SDS011;5797;51.662;6.748;2023-04-08T04:02:15;8.73;;;6.90;;
11481;SDS011;5797;51.662;6.748;2023-04-08T04:04:43;18.60;;;7.20;;
11481;SDS011;5797;51.662;6.748;2023-04-08T04:07:12;9.77;;;6.57;;
11481;SDS011;5797;51.662;6.748;2023-04-08T04:09:41;19.63;;;8.53;;
11481;SDS011;5797;51.662;6.748;2023-04-08T04:12:11;7.50;;;6.40;;
11481;SDS011;5797;51.662;6.748;2023-04-08T04:14:39;16.07;;;7.70;;
11481;SDS011;5797;51.662;6.748;2023-04-08T04:17:07;21.73;;;8.27;;
11481;SDS011;5797;51.662;6.748;2023-04-08T04:19:35;17.93;;;6.60;;
11481;SDS011;5797;51.662;6.748;2023-04-08T04:22:04;9.60;;;6.50;;
11481;SDS011;5797;51.662;6.748;2023-04-08T04:24:32;20.33;;;8.40;;
11481;SDS011;5797;51.662;6.748;2023-04-08T04:27:00;8.10;;;5.57;;
11481;SDS011;5797;51.662;6.748;2023-04-08T04:29:31;10.77;;;6.90;;
11481;SDS011;5797;51.662;6.748;2023-04-08T04:31:59;19.27;;;7.80;;
11481;SDS011;5797;51.662;6.748;2023-04-08T04:34:27;16.93;;;6.80;;
11481;SDS011;5797;51.662;6.748;2023-04-08T04:36:55;14.53;;;7.57;;
11481;SDS011;5797;51.662;6.748;2023-04-08T04:39:24;14.80;;;7.30;;
11481;SDS011;5797;51.662;6.748;2023-04-08T04:41:52;67.93;;;11.20;;
11481;SDS011;5797;51.662;6.748;2023-04-08T04:44:20;27.43;;;10.07;;
11481;SDS011;5797;51.662;6.748;2023-04-08T04:46:50;20.03;;;6.83;;
11481;SDS011;5797;51.662;6.748;2023-04-08T04:49:19;29.13;;;8.23;;
11481;SDS011;5797;51.662;6.748;2023-04-08T04:51:47;22.77;;;7.93;;
11481;SDS011;5797;51.662;6.748;2023-04-08T04:54:16;7.53;;;5.80;;
11481;SDS011;5797;51.662;6.748;2023-04-08T04:56:44;14.43;;;6.40;;
11481;SDS011;5797;51.662;6.748;2023-04-08T04:59:12;12.07;;;6.60;;
11481;SDS011;5797;51.662;6.748;2023-04-08T05:01:40;14.83;;;6.33;;
11481;SDS011;5797;51.662;6.748;2023-04-08T05:04:10;8.53;;;6.70;;
11481;SDS011;5797;51.662;6.748;2023-04-08T05:06:38;10.23;;;5.90;;
11481;SDS011;5797;51.662;6.748;2023-04-08T05:09:07;10.60;;;6.40;;
11481;SDS011;5797;51.662;6.748;2023-04-08T05:11:35;8.03;;;5.90;;
11481;SDS011;5797;51.662;6.748;2023-04-08T05:14:03;7.50;;;6.03;;
11481;SDS011;5797;51.662;6.748;2023-04-08T05:16:32;7.83;;;5.83;;
11481;SDS011;5797;51.662;6.748;2023-04-08T05:19:01;6.23;;;5.47;;
11481;SDS011;5797;51.662;6.748;2023-04-08T05:21:30;7.83;;;6.10;;
11481;SDS011;5797;51.662;6.748;2023-04-08T05:23:59;9.03;;;6.80;;
11481;SDS011;5797;51.662;6.748;2023-04-08T05:26:27;17.27;;;8.20;;
11481;SDS011;5797;51.662;6.748;2023-04-08T05:28:56;16.53;;;7.70;;
11481;SDS011;5797;51.662;6.748;2023-04-08T05:31:25;31.57;;;9.03;;
11481;SDS011;5797;51.662;6.748;2023-04-08T05:33:53;27.57;;;8.63;;
11481;SDS011;5797;51.662;6.748;2023-04-08T05:36:21;61.67;;;9.27;;
11481;SDS011;5797;51.662;6.748;2023-04-08T05:38:51;22.33;;;7.57;;
11481;SDS011;5797;51.662;6.748;2023-04-08T05:41:19;66.93;;;10.27;;
11481;SDS011;5797;51.662;6.748;2023-04-08T05:43:48;13.77;;;7.07;;
11481;SDS011;5797;51.662;6.748;2023-04-08T05:46:16;50.27;;;9.30;;
11481;SDS011;5797;51.662;6.748;2023-04-08T05:48:44;49.97;;;7.73;;
11481;SDS011;5797;51.662;6.748;2023-04-08T05:51:13;21.00;;;6.30;;
11481;SDS011;5797;51.662;6.748;2023-04-08T05:53:41;18.70;;;6.40;;
11481;SDS011;5797;51.662;6.748;2023-04-08T05:56:11;23.73;;;7.23;;
11481;SDS011;5797;51.662;6.748;2023-04-08T05:58:39;10.47;;;6.00;;
11481;SDS011;5797;51.662;6.748;2023-04-08T06:01:07;15.50;;;7.27;;
11481;SDS011;5797;51.662;6.748;2023-04-08T06:03:36;15.83;;;6.90;;
11481;SDS011;5797;51.662;6.748;2023-04-08T06:06:08;7.63;;;6.07;;
11481;SDS011;5797;51.662;6.748;2023-04-08T06:08:37;10.97;;;6.63;;
11481;SDS011;5797;51.662;6.748;2023-04-08T06:11:05;12.60;;;6.30;;
11481;SDS011;5797;51.662;6.748;2023-04-08T06:13:35;8.97;;;6.50;;
11481;SDS011;5797;51.662;6.748;2023-04-08T06:16:10;9.17;;;6.70;;
11481;SDS011;5797;51.662;6.748;2023-04-08T06:18:39;9.77;;;6.37;;
11481;SDS011;5797;51.662;6.748;2023-04-08T06:21:08;8.73;;;6.60;;
11481;SDS011;5797;51.662;6.748;2023-04-08T06:23:37;10.97;;;7.70;;
11481;SDS011;5797;51.662;6.748;2023-04-08T06:26:05;11.20;;;8.27;;
11481;SDS011;5797;51.662;6.748;2023-04-08T06:28:33;12.03;;;8.47;;
11481;SDS011;5797;51.662;6.748;2023-04-08T06:31:03;11.60;;;8.73;;
11481;SDS011;5797;51.662;6.748;2023-04-08T06:33:32;15.00;;;8.83;;
11481;SDS011;5797;51.662;6.748;2023-04-08T06:36:00;11.13;;;8.40;;
11481;SDS011;5797;51.662;6.748;2023-04-08T06:38:29;11.93;;;8.73;;
11481;SDS011;5797;51.662;6.748;2023-04-08T06:41:00;12.03;;;8.40;;
11481;SDS011;5797;51.662;6.748;2023-04-08T06:43:29;13.67;;;9.00;;
11481;SDS011;5797;51.662;6.748;2023-04-08T06:45:59;14.93;;;9.53;;
11481;SDS011;5797;51.662;6.748;2023-04-08T06:48:27;13.83;;;9.00;;
11481;SDS011;5797;51.662;6.748;2023-04-08T06:50:56;16.53;;;11.07;;
11481;SDS011;5797;51.662;6.748;2023-04-08T06:53:25;23.13;;;13.33;;
11481;SDS011;5797;51.662;6.748;2023-04-08T06:55:55;14.57;;;10.30;;
11481;SDS011;5797;51.662;6.748;2023-04-08T06:58:23;17.53;;;11.10;;
11481;SDS011;5797;51.662;6.748;2023-04-08T07:00:52;14.00;;;10.23;;
11481;SDS011;5797;51.662;6.748;2023-04-08T07:03:22;18.57;;;11.00;;
11481;SDS011;5797;51.662;6.748;2023-04-08T07:05:51;16.90;;;10.63;;
11481;SDS011;5797;51.662;6.748;2023-04-08T07:08:19;17.73;;;11.90;;
11481;SDS011;5797;51.662;6.748;2023-04-08T07:10:47;17.80;;;11.13;;
11481;SDS011;5797;51.662;6.748;2023-04-08T07:13:16;22.13;;;11.57;;
11481;SDS011;5797;51.662;6.748;2023-04-08T07:15:44;15.50;;;10.77;;
11481;SDS011;5797;51.662;6.748;2023-04-08T07:18:12;17.77;;;11.47;;
11481;SDS011;5797;51.662;6.748;2023-04-08T07:20:42;18.63;;;11.77;;
11481;SDS011;5797;51.662;6.748;2023-04-08T07:23:11;17.13;;;11.37;;
11481;SDS011;5797;51.662;6.748;2023-04-08T07:25:39;18.67;;;11.00;;
11481;SDS011;5797;51.662;6.748;2023-04-08T07:28:07;18.07;;;11.07;;
11481;SDS011;5797;51.662;6.748;2023-04-08T07:30:36;20.10;;;11.07;;
11481;SDS011;5797;51.662;6.748;2023-04-08T07:33:04;17.80;;;11.33;;
11481;SDS011;5797;51.662;6.748;2023-04-08T07:35:33;16.70;;;11.27;;
11481;SDS011;5797;51.662;6.748;2023-04-08T07:38:02;17.47;;;11.77;;
11481;SDS011;5797;51.662;6.748;2023-04-08T07:40:35;17.37;;;11.50;;
11481;SDS011;5797;51.662;6.748;2023-04-08T07:43:03;18.37;;;12.50;;
11481;SDS011;5797;51.662;6.748;2023-04-08T07:45:31;16.90;;;11.30;;
11481;SDS011;5797;51.662;6.748;2023-04-08T07:48:00;16.63;;;12.17;;
11481;SDS011;5797;51.662;6.748;2023-04-08T07:50:28;19.87;;;12.07;;
11481;SDS011;5797;51.662;6.748;2023-04-08T07:52:57;20.70;;;12.00;;
11481;SDS011;5797;51.662;6.748;2023-04-08T07:55:26;24.13;;;13.77;;
11481;SDS011;5797;51.662;6.748;2023-04-08T07:57:55;18.80;;;11.90;;
11481;SDS011;5797;51.662;6.748;2023-04-08T08:00:23;20.70;;;12.03;;
11481;SDS011;5797;51.662;6.748;2023-04-08T08:02:52;15.77;;;11.80;;
11481;SDS011;5797;51.662;6.748;2023-04-08T08:05:20;18.33;;;11.80;;
11481;SDS011;5797;51.662;6.748;2023-04-08T08:07:48;19.37;;;12.50;;
11481;SDS011;5797;51.662;6.748;2023-04-08T08:10:17;17.77;;;11.53;;
11481;SDS011;5797;51.662;6.748;2023-04-08T08:12:47;18.40;;;11.53;;
11481;SDS011;5797;51.662;6.748;2023-04-08T08:15:15;20.43;;;12.47;;
11481;SDS011;5797;51.662;6.748;2023-04-08T08:17:44;18.07;;;11.77;;
11481;SDS011;5797;51.662;6.748;2023-04-08T08:20:12;17.77;;;11.13;;
11481;SDS011;5797;51.662;6.748;2023-04-08T08:22:41;18.67;;;11.83;;
11481;SDS011;5797;51.662;6.748;2023-04-08T08:25:22;19.30;;;11.83;;
11481;SDS011;5797;51.662;6.748;2023-04-08T08:27:53;19.90;;;11.43;;
11481;SDS011;5797;51.662;6.748;2023-04-08T08:30:21;19.80;;;11.30;;
11481;SDS011;5797;51.662;6.748;2023-04-08T08:32:50;15.93;;;10.80;;
11481;SDS011;5797;51.662;6.748;2023-04-08T08:35:19;19.77;;;12.20;;
11481;SDS011;5797;51.662;6.748;2023-04-08T08:37:47;15.43;;;10.43;;
11481;SDS011;5797;51.662;6.748;2023-04-08T08:40:16;16.37;;;11.43;;
11481;SDS011;5797;51.662;6.748;2023-04-08T08:42:48;16.17;;;10.83;;
11481;SDS011;5797;51.662;6.748;2023-04-08T08:45:19;17.97;;;10.93;;
11481;SDS011;5797;51.662;6.748;2023-04-08T08:47:48;16.30;;;11.40;;
11481;SDS011;5797;51.662;6.748;2023-04-08T08:50:18;17.57;;;11.53;;
11481;SDS011;5797;51.662;6.748;2023-04-08T08:52:47;17.47;;;11.40;;
11481;SDS011;5797;51.662;6.748;2023-04-08T08:55:17;17.30;;;10.90;;
11481;SDS011;5797;51.662;6.748;2023-04-08T08:58:02;16.80;;;11.00;;
11481;SDS011;5797;51.662;6.748;2023-04-08T09:00:33;17.47;;;10.93;;
11481;SDS011;5797;51.662;6.748;2023-04-08T09:03:12;18.70;;;11.30;;
11481;SDS011;5797;51.662;6.748;2023-04-08T09:05:52;17.10;;;10.67;;
11481;SDS011;5797;51.662;6.748;2023-04-08T09:08:22;18.33;;;11.07;;
11481;SDS011;5797;51.662;6.748;2023-04-08T09:10:51;17.40;;;11.43;;
11481;SDS011;5797;51.662;6.748;2023-04-08T09:13:20;20.63;;;12.07;;
11481;SDS011;5797;51.662;6.748;2023-04-08T09:16:03;19.43;;;12.43;;
11481;SDS011;5797;51.662;6.748;2023-04-08T09:18:33;19.80;;;12.60;;
11481;SDS011;5797;51.662;6.748;2023-04-08T09:21:02;18.60;;;12.53;;
11481;SDS011;5797;51.662;6.748;2023-04-08T09:23:36;20.80;;;12.87;;
11481;SDS011;5797;51.662;6.748;2023-04-08T09:26:06;18.03;;;12.03;;
11481;SDS011;5797;51.662;6.748;2023-04-08T09:28:36;18.70;;;12.07;;
11481;SDS011;5797;51.662;6.748;2023-04-08T09:31:18;16.50;;;11.87;;
11481;SDS011;5797;51.662;6.748;2023-04-08T09:33:48;16.47;;;12.90;;
11481;SDS011;5797;51.662;6.748;2023-04-08T09:36:17;23.50;;;13.80;;
11481;SDS011;5797;51.662;6.748;2023-04-08T09:38:46;15.90;;;11.30;;
11481;SDS011;5797;51.662;6.748;2023-04-08T09:41:15;14.93;;;9.90;;
11481;SDS011;5797;51.662;6.748;2023-04-08T09:43:46;12.57;;;8.67;;
11481;SDS011;5797;51.662;6.748;2023-04-08T09:46:17;17.43;;;9.77;;
11481;SDS011;5797;51.662;6.748;2023-04-08T09:48:55;11.40;;;8.70;;
11481;SDS011;5797;51.662;6.748;2023-04-08T09:51:30;13.97;;;8.97;;
11481;SDS011;5797;51.662;6.748;2023-04-08T09:54:01;13.17;;;9.00;;
11481;SDS011;5797;51.662;6.748;2023-04-08T09:56:34;16.43;;;9.07;;
11481;SDS011;5797;51.662;6.748;2023-04-08T09:59:08;13.83;;;8.73;;
11481;SDS011;5797;51.662;6.748;2023-04-08T10:01:43;11.90;;;8.33;;
11481;SDS011;5797;51.662;6.748;2023-04-08T10:04:14;13.30;;;8.80;;
11481;SDS011;5797;51.662;6.748;2023-04-08T10:06:43;13.40;;;7.93;;
11481;SDS011;5797;51.662;6.748;2023-04-08T10:09:11;10.30;;;7.97;;
11481;SDS011;5797;51.662;6.748;2023-04-08T10:11:40;11.10;;;8.37;;
11481;SDS011;5797;51.662;6.748;2023-04-08T10:14:08;9.90;;;7.47;;
11481;SDS011;5797;51.662;6.748;2023-04-08T10:16:37;13.20;;;8.17;;
11481;SDS011;5797;51.662;6.748;2023-04-08T10:19:34;11.23;;;8.13;;
11481;SDS011;5797;51.662;6.748;2023-04-08T10:22:14;10.67;;;7.60;;
11481;SDS011;5797;51.662;6.748;2023-04-08T10:25:26;15.00;;;7.70;;
11481;SDS011;5797;51.662;6.748;2023-04-08T10:27:56;10.50;;;8.03;;
11481;SDS011;5797;51.662;6.748;2023-04-08T10:30:40;11.10;;;7.70;;
11481;SDS011;5797;51.662;6.748;2023-04-08T10:33:09;8.83;;;7.13;;
11481;SDS011;5797;51.662;6.748;2023-04-08T10:35:40;11.20;;;7.37;;
11481;SDS011;5797;51.662;6.748;2023-04-08T10:38:13;9.67;;;6.80;;
11481;SDS011;5797;51.662;6.748;2023-04-08T10:40:43;12.07;;;7.70;;
11481;SDS011;5797;51.662;6.748;2023-04-08T10:43:12;13.83;;;6.80;;
11481;SDS011;5797;51.662;6.748;2023-04-08T10:45:42;9.17;;;6.87;;
11481;SDS011;5797;51.662;6.748;2023-04-08T10:48:13;10.70;;;6.87;;
11481;SDS011;5797;51.662;6.748;2023-04-08T10:50:44;11.73;;;7.30;;
11481;SDS011;5797;51.662;6.748;2023-04-08T10:53:24;10.27;;;7.50;;
11481;SDS011;5797;51.662;6.748;2023-04-08T10:55:53;12.93;;;7.23;;
11481;SDS011;5797;51.662;6.748;2023-04-08T10:58:21;12.23;;;7.60;;
11481;SDS011;5797;51.662;6.748;2023-04-08T11:00:50;10.33;;;7.27;;
11481;SDS011;5797;51.662;6.748;2023-04-08T11:03:18;11.10;;;7.23;;
11481;SDS011;5797;51.662;6.748;2023-04-08T11:05:47;16.67;;;7.73;;
11481;SDS011;5797;51.662;6.748;2023-04-08T11:08:16;14.83;;;7.53;;
11481;SDS011;5797;51.662;6.748;2023-04-08T11:10:48;9.77;;;7.17;;
11481;SDS011;5797;51.662;6.748;2023-04-08T11:13:17;10.57;;;7.37;;
11481;SDS011;5797;51.662;6.748;2023-04-08T11:15:45;12.83;;;7.13;;
11481;SDS011;5797;51.662;6.748;2023-04-08T11:18:14;10.13;;;6.90;;
11481;SDS011;5797;51.662;6.748;2023-04-08T11:20:43;12.63;;;7.57;;
11481;SDS011;5797;51.662;6.748;2023-04-08T11:23:12;9.50;;;6.67;;
11481;SDS011;5797;51.662;6.748;2023-04-08T11:25:40;8.93;;;6.83;;
11481;SDS011;5797;51.662;6.748;2023-04-08T11:28:10;10.40;;;7.40;;
11481;SDS011;5797;51.662;6.748;2023-04-08T11:30:40;10.87;;;7.07;;
11481;SDS011;5797;51.662;6.748;2023-04-08T11:33:09;9.57;;;6.97;;
11481;SDS011;5797;51.662;6.748;2023-04-08T11:35:38;9.13;;;6.60;;
11481;SDS011;5797;51.662;6.748;2023-04-08T11:38:07;8.07;;;6.57;;
11481;SDS011;5797;51.662;6.748;2023-04-08T11:40:36;9.60;;;6.27;;
11481;SDS011;5797;51.662;6.748;2023-04-08T11:43:08;10.40;;;6.53;;
11481;SDS011;5797;51.662;6.748;2023-04-08T11:45:38;7.40;;;5.37;;
11481;SDS011;5797;51.662;6.748;2023-04-08T11:48:08;8.17;;;5.23;;
11481;SDS011;5797;51.662;6.748;2023-04-08T11:50:37;8.00;;;4.77;;
11481;SDS011;5797;51.662;6.748;2023-04-08T11:53:14;6.07;;;4.50;;
11481;SDS011;5797;51.662;6.748;2023-04-08T11:55:44;8.57;;;4.90;;
11481;SDS011;5797;51.662;6.748;2023-04-08T11:58:13;8.20;;;5.33;;
11481;SDS011;5797;51.662;6.748;2023-04-08T12:00:43;6.93;;;5.43;;
11481;SDS011;5797;51.662;6.748;2023-04-08T12:03:12;8.03;;;5.03;;
11481;SDS011;5797;51.662;6.748;2023-04-08T12:05:40;6.23;;;5.13;;
11481;SDS011;5797;51.662;6.748;2023-04-08T12:08:09;7.43;;;5.37;;
11481;SDS011;5797;51.662;6.748;2023-04-08T12:10:37;7.20;;;5.30;;
11481;SDS011;5797;51.662;6.748;2023-04-08T12:13:06;6.60;;;5.13;;
11481;SDS011;5797;51.662;6.748;2023-04-08T12:15:34;7.67;;;5.73;;
11481;SDS011;5797;51.662;6.748;2023-04-08T12:18:04;8.40;;;6.20;;
11481;SDS011;5797;51.662;6.748;2023-04-08T12:20:32;6.77;;;4.53;;
11481;SDS011;5797;51.662;6.748;2023-04-08T12:23:01;7.37;;;5.67;;
11481;SDS011;5797;51.662;6.748;2023-04-08T12:25:29;7.27;;;5.43;;
11481;SDS011;5797;51.662;6.748;2023-04-08T12:27:58;7.53;;;5.53;;
11481;SDS011;5797;51.662;6.748;2023-04-08T12:30:26;7.23;;;5.10;;
11481;SDS011;5797;51.662;6.748;2023-04-08T12:32:54;7.30;;;5.83;;
11481;SDS011;5797;51.662;6.748;2023-04-08T12:35:25;8.67;;;5.80;;
11481;SDS011;5797;51.662;6.748;2023-04-08T12:37:53;7.90;;;5.43;;
11481;SDS011;5797;51.662;6.748;2023-04-08T12:40:22;7.57;;;5.53;;
11481;SDS011;5797;51.662;6.748;2023-04-08T12:42:50;6.17;;;4.97;;
11481;SDS011;5797;51.662;6.748;2023-04-08T12:45:19;7.13;;;5.63;;
11481;SDS011;5797;51.662;6.748;2023-04-08T12:47:47;7.23;;;5.27;;
11481;SDS011;5797;51.662;6.748;2023-04-08T12:50:16;6.87;;;5.80;;
11481;SDS011;5797;51.662;6.748;2023-04-08T12:52:46;6.53;;;5.53;;
11481;SDS011;5797;51.662;6.748;2023-04-08T12:55:14;8.47;;;5.70;;
11481;SDS011;5797;51.662;6.748;2023-04-08T12:57:44;8.80;;;6.10;;
11481;SDS011;5797;51.662;6.748;2023-04-08T13:00:12;8.73;;;6.47;;
11481;SDS011;5797;51.662;6.748;2023-04-08T13:02:42;7.80;;;5.67;;
11481;SDS011;5797;51.662;6.748;2023-04-08T13:05:10;8.10;;;5.63;;
11481;SDS011;5797;51.662;6.748;2023-04-08T13:07:39;7.77;;;6.73;;
11481;SDS011;5797;51.662;6.748;2023-04-08T13:10:09;6.17;;;5.47;;
11481;SDS011;5797;51.662;6.748;2023-04-08T13:12:37;8.07;;;6.17;;
11481;SDS011;5797;51.662;6.748;2023-04-08T13:15:06;7.37;;;6.03;;
11481;SDS011;5797;51.662;6.748;2023-04-08T13:17:36;7.67;;;6.07;;
11481;SDS011;5797;51.662;6.748;2023-04-08T13:20:05;8.30;;;5.83;;
11481;SDS011;5797;51.662;6.748;2023-04-08T13:22:35;8.33;;;6.30;;
11481;SDS011;5797;51.662;6.748;2023-04-08T13:25:04;7.13;;;6.10;;
11481;SDS011;5797;51.662;6.748;2023-04-08T13:27:34;7.93;;;6.70;;
11481;SDS011;5797;51.662;6.748;2023-04-08T13:30:03;10.33;;;6.90;;
11481;SDS011;5797;51.662;6.748;2023-04-08T13:32:32;9.20;;;7.00;;
11481;SDS011;5797;51.662;6.748;2023-04-08T13:35:00;9.93;;;7.17;;
11481;SDS011;5797;51.662;6.748;2023-04-08T13:37:29;8.93;;;6.63;;
11481;SDS011;5797;51.662;6.748;2023-04-08T13:39:57;8.33;;;6.33;;
11481;SDS011;5797;51.662;6.748;2023-04-08T13:42:26;9.87;;;7.10;;
11481;SDS011;5797;51.662;6.748;2023-04-08T13:44:55;11.53;;;7.33;;
11481;SDS011;5797;51.662;6.748;2023-04-08T13:47:24;11.67;;;7.10;;
11481;SDS011;5797;51.662;6.748;2023-04-08T13:49:54;8.73;;;7.00;;
11481;SDS011;5797;51.662;6.748;2023-04-08T13:52:22;9.57;;;7.27;;
11481;SDS011;5797;51.662;6.748;2023-04-08T13:54:50;11.73;;;7.63;;
11481;SDS011;5797;51.662;6.748;2023-04-08T13:57:19;8.97;;;7.17;;
11481;SDS011;5797;51.662;6.748;2023-04-08T13:59:47;10.03;;;7.57;;
11481;SDS011;5797;51.662;6.748;2023-04-08T14:02:17;8.83;;;7.30;;
11481;SDS011;5797;51.662;6.748;2023-04-08T14:04:45;10.77;;;7.33;;
11481;SDS011;5797;51.662;6.748;2023-04-08T14:07:14;11.97;;;7.90;;
11481;SDS011;5797;51.662;6.748;2023-04-08T14:09:42;11.27;;;7.50;;
11481;SDS011;5797;51.662;6.748;2023-04-08T14:12:11;10.37;;;7.67;;
11481;SDS011;5797;51.662;6.748;2023-04-08T14:14:39;10.53;;;8.20;;
11481;SDS011;5797;51.662;6.748;2023-04-08T14:17:08;9.57;;;7.80;;
11481;SDS011;5797;51.662;6.748;2023-04-08T14:19:38;11.60;;;8.13;;
11481;SDS011;5797;51.662;6.748;2023-04-08T14:22:07;11.87;;;8.03;;
11481;SDS011;5797;51.662;6.748;2023-04-08T14:24:36;9.47;;;7.67;;
11481;SDS011;5797;51.662;6.748;2023-04-08T14:27:04;9.83;;;7.97;;
11481;SDS011;5797;51.662;6.748;2023-04-08T14:29:33;13.33;;;8.97;;
11481;SDS011;5797;51.662;6.748;2023-04-08T14:32:02;9.73;;;7.70;;
11481;SDS011;5797;51.662;6.748;2023-04-08T14:34:30;11.23;;;8.20;;
11481;SDS011;5797;51.662;6.748;2023-04-08T14:37:00;11.97;;;8.47;;
11481;SDS011;5797;51.662;6.748;2023-04-08T14:39:29;12.43;;;9.00;;
11481;SDS011;5797;51.662;6.748;2023-04-08T14:41:57;10.60;;;8.10;;
11481;SDS011;5797;51.662;6.748;2023-04-08T14:44:26;11.07;;;8.20;;
11481;SDS011;5797;51.662;6.748;2023-04-08T14:46:54;12.60;;;8.20;;
11481;SDS011;5797;51.662;6.748;2023-04-08T14:49:22;10.97;;;7.90;;
11481;SDS011;5797;51.662;6.748;2023-04-08T14:51:51;11.83;;;8.87;;
11481;SDS011;5797;51.662;6.748;2023-04-08T14:54:21;12.93;;;8.80;;
11481;SDS011;5797;51.662;6.748;2023-04-08T14:56:49;11.57;;;8.60;;
11481;SDS011;5797;51.662;6.748;2023-04-08T14:59:20;12.37;;;8.93;;
11481;SDS011;5797;51.662;6.748;2023-04-08T15:01:49;12.27;;;8.70;;
11481;SDS011;5797;51.662;6.748;2023-04-08T15:04:17;12.97;;;9.13;;